Terminal Aerodrome Forecast
Issued by NWS

Home | Current Version | Previous Version | Text Only | Print | Product List | Glossary On
Versions: 1 2 3 4 5 6 7 8 9 10 11 12 13 14 15 16
000
FTUS43 KIND 231720
TAFBMG
TAF
KBMG 231720Z 2318/2418 25010KT 6SM -SHRA OVC010
     FM231900 25009KT P6SM VCSH OVC008
     FM240000 28007KT P6SM VCSH OVC025
     FM240600 26009KT P6SM OVC030
     FM241500 25011G22KT P6SM OVC025=

USA.gov is the U.S. government's official web portal to all federal, state and local government web resources and services.